Time;durP1;ratioP1;P1;durP2;ratioP2;P2;SDS_P1;SDS_P2;PMS_P1;PMS_P2;Temp;Humidity;BMP_temperature;BMP_pressure;BME280_temperature;BME280_humidity;BME280_pressure;Samples;Min_cycle;Max_cycle;Signal;HPM_P1;HPM_P2
2021/06/19 00:02:13;;;;;;;7.15;3.02;;;;;;;18.09;100.00;99833.31;1717611;81;20890;-63
2021/06/19 00:04:40;;;;;;;8.75;4.17;;;;;;;18.05;100.00;99828.77;1716632;81;21427;-61
2021/06/19 00:07:07;;;;;;;6.53;3.72;;;;;;;18.00;100.00;99835.89;1691179;81;20953;-60
2021/06/19 00:09:34;;;;;;;3.65;3.35;;;;;;;17.94;100.00;99834.37;1703229;81;20965;-60
2021/06/19 00:12:01;;;;;;;4.00;3.50;;;;;;;17.90;100.00;99831.98;1704072;81;21737;-61
2021/06/19 00:14:27;;;;;;;6.87;3.40;;;;;;;17.86;100.00;99832.86;1702459;81;21531;-60
2021/06/19 00:16:54;;;;;;;4.97;4.30;;;;;;;17.83;100.00;99832.10;1711604;81;21065;-61
2021/06/19 00:19:21;;;;;;;5.33;3.58;;;;;;;17.79;100.00;99825.87;1687909;83;21550;-60
2021/06/19 00:21:48;;;;;;;16.67;4.00;;;;;;;17.76;100.00;99832.43;1720262;81;20930;-61
2021/06/19 00:24:24;;;;;;;8.13;3.37;;;;;;;17.72;100.00;99824.64;1725886;80;21166;-61
2021/06/19 00:26:51;;;;;;;5.90;4.10;;;;;;;17.68;100.00;99825.77;1711224;82;20926;-61
2021/06/19 00:29:18;;;;;;;7.83;3.72;;;;;;;17.63;100.00;99822.33;1733797;80;20965;-60
2021/06/19 00:31:45;;;;;;;7.50;3.75;;;;;;;17.59;100.00;99820.77;1727443;81;21345;-61
2021/06/19 00:34:12;;;;;;;5.33;3.25;;;;;;;17.56;100.00;99818.62;1742067;81;20949;-60
2021/06/19 00:36:38;;;;;;;7.50;3.90;;;;;;;17.53;100.00;99817.85;1708056;81;21119;-60
2021/06/19 00:39:06;;;;;;;12.28;3.92;;;;;;;17.47;100.00;99827.98;1703339;81;21491;-61
2021/06/19 00:41:34;;;;;;;5.80;4.00;;;;;;;17.46;100.00;99829.06;1719517;81;20971;-60
2021/06/19 00:44:06;;;;;;;11.33;3.87;;;;;;;17.42;100.00;99818.56;1722399;82;20957;-61
2021/06/19 00:46:32;;;;;;;4.72;3.95;;;;;;;17.39;100.00;99824.55;1728670;81;21014;-60
2021/06/19 00:48:59;;;;;;;5.15;3.55;;;;;;;17.37;100.00;99819.98;1687825;82;21732;-60
2021/06/19 00:51:25;;;;;;;6.83;3.47;;;;;;;17.33;100.00;99816.23;1698886;81;20878;-60
2021/06/19 00:53:52;;;;;;;3.72;3.42;;;;;;;17.30;100.00;99814.91;1695385;80;20984;-60
2021/06/19 00:56:19;;;;;;;4.17;3.45;;;;;;;17.28;100.00;99816.30;1709496;81;21032;-60
2021/06/19 00:58:46;;;;;;;9.58;4.20;;;;;;;17.24;100.00;99818.78;1698252;82;21059;-60
2021/06/19 01:01:14;;;;;;;9.05;4.33;;;;;;;17.19;100.00;99817.49;1729176;81;22132;-61
2021/06/19 01:03:42;;;;;;;9.48;3.72;;;;;;;17.14;100.00;99816.20;1702309;82;21088;-61
2021/06/19 01:06:08;;;;;;;6.05;3.80;;;;;;;17.14;100.00;99815.65;1722627;81;21585;-61
2021/06/19 01:08:35;;;;;;;11.10;4.28;;;;;;;17.11;100.00;99813.52;1717568;81;21004;-61
2021/06/19 01:11:02;;;;;;;8.73;3.77;;;;;;;17.10;100.00;99817.91;1691173;81;21470;-61
2021/06/19 01:13:29;;;;;;;9.85;4.25;;;;;;;17.06;100.00;99818.22;1712344;81;21135;-61
2021/06/19 01:15:59;;;;;;;25.05;4.28;;;;;;;17.02;100.00;99813.91;1720946;81;20940;-60
2021/06/19 01:18:25;;;;;;;7.75;4.15;;;;;;;17.01;100.00;99812.86;1720243;81;21046;-60
2021/06/19 01:20:53;;;;;;;9.10;3.67;;;;;;;16.98;100.00;99813.41;1725217;81;21381;-61
2021/06/19 01:23:19;;;;;;;8.93;3.90;;;;;;;16.97;100.00;99817.23;1718539;81;21130;-60
2021/06/19 01:25:46;;;;;;;6.83;4.00;;;;;;;16.93;100.00;99812.40;1712222;81;21159;-60
2021/06/19 01:28:12;;;;;;;8.10;3.75;;;;;;;16.88;100.00;99811.66;1718838;81;21502;-60
2021/06/19 01:30:39;;;;;;;8.05;4.40;;;;;;;16.84;100.00;99808.70;1721183;81;21062;-61
2021/06/19 01:33:08;;;;;;;5.90;3.98;;;;;;;16.83;100.00;99802.20;1714309;81;21514;-61
2021/06/19 01:35:35;;;;;;;;;;;;;;;16.84;100.00;99806.55;1713086;81;20967;-60
2021/06/19 01:38:05;;;;;;;6.90;4.00;;;;;;;16.86;100.00;99799.73;1714767;81;21106;-61
2021/06/19 01:40:32;;;;;;;9.10;4.12;;;;;;;16.92;100.00;99799.92;1700274;81;21329;-60
2021/06/19 01:42:59;;;;;;;4.12;3.70;;;;;;;16.96;100.00;99802.87;1713057;81;20901;-61
2021/06/19 01:45:32;;;;;;;11.50;5.03;;;;;;;16.97;100.00;99795.55;1701294;80;21453;-61
2021/06/19 01:48:02;;;;;;;6.25;4.35;;;;;;;16.92;100.00;99795.85;1691501;81;21096;-62
2021/06/19 01:50:31;;;;;;;4.22;3.72;;;;;;;16.88;100.00;99797.55;1689827;81;20957;-61
2021/06/19 01:52:59;;;;;;;6.85;4.47;;;;;;;16.84;100.00;99795.70;1706849;81;21009;-62
2021/06/19 01:55:26;;;;;;;5.30;3.87;;;;;;;16.82;100.00;99796.53;1701874;81;20974;-61
2021/06/19 01:57:55;;;;;;;7.37;3.60;;;;;;;16.78;100.00;99796.32;1710751;81;20976;-61
2021/06/19 02:00:26;;;;;;;5.95;3.80;;;;;;;16.78;100.00;99799.52;1712005;81;20861;-61
2021/06/19 02:02:53;;;;;;;5.92;3.80;;;;;;;16.79;100.00;99797.92;1714207;81;21113;-61
2021/06/19 02:05:20;;;;;;;6.75;3.92;;;;;;;16.80;100.00;99800.88;1718555;81;21043;-61
2021/06/19 02:07:57;;;;;;;4.97;3.80;;;;;;;16.80;100.00;99801.44;1712195;81;21029;-60
2021/06/19 02:10:30;;;;;;;5.70;4.93;;;;;;;16.80;100.00;99809.02;1725350;81;21023;-60
2021/06/19 02:12:57;;;;;;;8.78;4.10;;;;;;;16.80;100.00;99800.88;1742231;81;21026;-60
2021/06/19 02:15:25;;;;;;;6.33;3.98;;;;;;;16.81;100.00;99803.87;1725236;81;21065;-60
2021/06/19 02:17:54;;;;;;;4.10;3.70;;;;;;;16.82;100.00;99804.67;1708313;81;20972;-60
2021/06/19 02:20:21;;;;;;;6.10;3.75;;;;;;;16.83;100.00;99805.75;1703777;81;20948;-60
2021/06/19 02:22:48;;;;;;;8.95;4.00;;;;;;;16.84;100.00;99807.34;1697430;82;20995;-60
2021/06/19 02:25:19;;;;;;;4.90;3.62;;;;;;;16.86;100.00;99814.65;1650866;82;20977;-60
2021/06/19 02:27:58;;;;;;;6.08;3.87;;;;;;;16.89;100.00;99811.91;1717060;81;21554;-60
2021/06/19 02:30:32;;;;;;;4.08;3.67;;;;;;;16.92;100.00;99816.74;1720320;81;20995;-60
2021/06/19 02:32:59;;;;;;;6.10;3.90;;;;;;;16.92;100.00;99812.67;1704228;82;21183;-61
2021/06/19 02:35:28;;;;;;;6.92;4.40;;;;;;;16.96;100.00;99816.98;1703305;80;21621;-61
2021/06/19 02:37:56;;;;;;;4.60;3.72;;;;;;;16.98;100.00;99821.55;1708459;81;21387;-61
2021/06/19 02:40:22;;;;;;;4.13;3.37;;;;;;;17.00;100.00;99825.61;1732798;81;21064;-60
2021/06/19 02:42:49;;;;;;;7.85;3.35;;;;;;;17.03;100.00;99823.67;1724146;81;20949;-60
2021/06/19 02:45:15;;;;;;;6.40;3.80;;;;;;;17.07;100.00;99820.61;1723971;82;21004;-61
2021/06/19 02:47:46;;;;;;;8.30;4.50;;;;;;;17.11;100.00;99824.38;1716263;81;20917;-60
2021/06/19 02:50:15;;;;;;;10.82;4.55;;;;;;;17.16;100.00;99821.34;1724799;81;20902;-61
2021/06/19 02:52:42;;;;;;;8.10;4.20;;;;;;;17.18;100.00;99821.31;1727012;81;21054;-60
2021/06/19 02:55:15;;;;;;;9.90;4.90;;;;;;;17.21;100.00;99823.44;1693338;81;20993;-61
2021/06/19 02:57:42;;;;;;;6.03;5.03;;;;;;;17.25;100.00;99816.34;1709003;81;21012;-61
2021/06/19 03:00:11;;;;;;;7.62;4.42;;;;;;;17.29;100.00;99822.78;1711504;81;21000;-61
2021/06/19 03:02:38;;;;;;;9.33;4.95;;;;;;;17.32;100.00;99829.00;1723748;81;20921;-61
2021/06/19 03:05:07;;;;;;;4.97;4.00;;;;;;;17.40;100.00;99833.52;1716703;80;21822;-60
2021/06/19 03:07:34;;;;;;;5.45;4.17;;;;;;;17.46;100.00;99835.05;1694438;80;21354;-60
2021/06/19 03:10:02;;;;;;;5.97;3.70;;;;;;;17.51;100.00;99833.06;1669884;81;21615;-61
2021/06/19 03:12:29;;;;;;;4.22;3.42;;;;;;;17.56;100.00;99841.16;1709176;81;21123;-61
2021/06/19 03:14:56;;;;;;;4.40;3.57;;;;;;;17.62;100.00;99837.81;1703400;81;21084;-61
2021/06/19 03:17:23;;;;;;;8.30;3.50;;;;;;;17.69;100.00;99841.53;1666629;82;21109;-63
2021/06/19 03:19:50;;;;;;;29.87;4.00;;;;;;;17.74;100.00;99845.52;1717406;81;21135;-60
2021/06/19 03:22:16;;;;;;;5.17;3.42;;;;;;;17.79;100.00;99846.80;1690180;83;21492;-61
2021/06/19 03:24:44;;;;;;;4.90;3.15;;;;;;;17.87;100.00;99846.16;1667813;81;21016;-62
2021/06/19 03:27:13;;;;;;;4.40;3.40;;;;;;;17.92;100.00;99839.84;1688738;81;21401;-61
2021/06/19 03:29:41;;;;;;;8.63;3.45;;;;;;;17.97;100.00;99848.70;1704140;81;21377;-61
2021/06/19 03:32:08;;;;;;;6.78;3.50;;;;;;;18.02;100.00;99842.39;1717711;81;20877;-62
2021/06/19 03:34:37;;;;;;;3.77;3.30;;;;;;;18.03;100.00;99850.81;1693838;81;21119;-62
2021/06/19 03:37:04;;;;;;;7.85;3.77;;;;;;;18.07;100.00;99848.30;1674786;80;20994;-61
2021/06/19 03:39:34;;;;;;;4.97;3.47;;;;;;;18.15;100.00;99845.72;1716812;81;21524;-61
2021/06/19 03:42:01;;;;;;;6.78;4.05;;;;;;;18.20;100.00;99846.16;1700941;81;21116;-61
2021/06/19 03:44:28;;;;;;;10.18;3.50;;;;;;;18.29;100.00;99847.10;1701838;81;20886;-61
2021/06/19 03:46:54;;;;;;;3.80;2.87;;;;;;;18.41;100.00;99848.80;1717255;81;20878;-61
2021/06/19 03:49:21;;;;;;;8.93;3.62;;;;;;;18.52;100.00;99839.92;1706656;81;20985;-61
2021/06/19 03:51:48;;;;;;;6.53;3.22;;;;;;;18.53;100.00;99840.17;1717594;81;21016;-60
2021/06/19 03:54:15;;;;;;;4.92;3.62;;;;;;;18.54;100.00;99840.41;1713737;81;21108;-61
2021/06/19 03:56:42;;;;;;;8.00;3.05;;;;;;;18.57;100.00;99833.03;1712639;81;20862;-62
2021/06/19 03:59:09;;;;;;;5.85;3.62;;;;;;;18.55;100.00;99840.68;1680184;82;21166;-63
2021/06/19 04:01:36;;;;;;;7.45;3.27;;;;;;;18.50;100.00;99838.05;1667731;83;21136;-62
2021/06/19 04:04:04;;;;;;;5.55;3.40;;;;;;;18.49;100.00;99847.30;1708158;81;20960;-62
2021/06/19 04:06:30;;;;;;;7.97;3.47;;;;;;;18.51;100.00;99845.09;1708730;81;21856;-61
2021/06/19 04:08:58;;;;;;;6.42;3.42;;;;;;;18.53;100.00;99845.60;1722045;81;20963;-61
2021/06/19 04:11:24;;;;;;;5.55;3.40;;;;;;;18.55;100.00;99849.39;1686914;83;21480;-64
2021/06/19 04:13:52;;;;;;;5.03;3.50;;;;;;;18.53;100.00;99840.73;1715167;81;20881;-62
2021/06/19 04:16:18;;;;;;;13.83;3.50;;;;;;;18.53;100.00;99848.87;1718775;81;21404;-62
2021/06/19 04:18:45;;;;;;;7.45;3.83;;;;;;;18.53;100.00;99848.32;1710761;81;22274;-63
2021/06/19 04:21:11;;;;;;;6.62;3.42;;;;;;;18.57;100.00;99853.42;1712687;81;21040;-62
2021/06/19 04:23:38;;;;;;;5.28;3.55;;;;;;;18.64;100.00;99847.57;1726008;81;20969;-63
2021/06/19 04:26:05;;;;;;;4.03;3.40;;;;;;;18.73;100.00;99852.58;1709734;81;20935;-62
2021/06/19 04:28:31;;;;;;;8.75;3.55;;;;;;;18.82;100.00;99861.69;1714125;81;20882;-62
2021/06/19 04:30:59;;;;;;;7.85;3.67;;;;;;;18.93;100.00;99857.41;1688380;83;21591;-62
2021/06/19 04:33:27;;;;;;;7.37;3.33;;;;;;;19.04;100.00;99856.11;1741753;81;20986;-61
2021/06/19 04:35:55;;;;;;;5.08;2.92;;;;;;;19.12;100.00;99855.95;1734771;81;21513;-62
2021/06/19 04:38:21;;;;;;;6.92;3.37;;;;;;;19.21;100.00;99859.58;1680093;83;20993;-61
2021/06/19 04:40:55;;;;;;;4.85;3.35;;;;;;;19.27;100.00;99851.55;1713519;81;21496;-62
2021/06/19 04:43:23;;;;;;;9.98;3.87;;;;;;;19.36;100.00;99852.45;1724399;80;21139;-62
2021/06/19 04:45:45;;;;;;;10.85;3.75;;;;;;;19.46;100.00;99854.14;1731344;81;20963;-63
2021/06/19 04:48:11;;;;;;;5.62;3.75;;;;;;;19.60;100.00;99860.38;1722739;81;20908;-62
2021/06/19 04:50:38;;;;;;;7.70;3.40;;;;;;;19.81;100.00;99863.45;1713883;81;21035;-61
2021/06/19 04:53:04;;;;;;;6.17;3.60;;;;;;;19.98;100.00;99860.06;1729511;81;20916;-61
2021/06/19 04:55:31;;;;;;;6.83;3.10;;;;;;;20.07;100.00;99866.95;1717087;81;21118;-62
2021/06/19 04:57:58;;;;;;;6.72;3.47;;;;;;;20.47;100.00;99858.87;1707908;81;21131;-62
2021/06/19 05:00:26;;;;;;;4.70;2.87;;;;;;;20.47;100.00;99858.87;1696708;82;21024;-62
2021/06/19 05:02:54;;;;;;;4.10;2.83;;;;;;;20.64;100.00;99871.26;1728893;82;21713;-61
2021/06/19 05:05:24;;;;;;;6.90;2.75;;;;;;;20.72;100.00;99873.21;1719913;81;21591;-59
2021/06/19 05:07:52;;;;;;;4.90;2.62;;;;;;;20.71;100.00;99873.55;1685704;83;21142;-61
2021/06/19 05:10:19;;;;;;;5.15;2.60;;;;;;;20.77;100.00;99869.55;1683540;83;20867;-61
2021/06/19 05:12:47;;;;;;;6.85;2.45;;;;;;;20.80;100.00;99874.40;1672569;83;20960;-60
2021/06/19 05:15:18;;;;;;;18.92;3.12;;;;;;;20.73;100.00;99868.59;1669624;83;20982;-60
2021/06/19 05:17:44;;;;;;;5.58;2.10;;;;;;;20.64;100.00;99874.55;1661968;83;21001;-60
2021/06/19 05:20:11;;;;;;;2.95;2.17;;;;;;;20.55;100.00;99863.58;1658103;84;21165;-61
2021/06/19 05:22:38;;;;;;;12.97;3.30;;;;;;;20.52;100.00;99860.09;1668223;82;21593;-60
2021/06/19 05:25:06;;;;;;;7.55;3.02;;;;;;;20.60;100.00;99856.63;1672644;81;21112;-60
2021/06/19 05:27:32;;;;;;;;;;;;;;;20.74;100.00;99861.44;1683809;82;21001;-61
2021/06/19 05:29:59;;;;;;;5.85;2.95;;;;;;;20.87;100.00;99859.75;1690976;81;20142;-60
2021/06/19 05:32:26;;;;;;;11.28;2.70;;;;;;;21.17;100.00;99855.91;1684455;82;21725;-60
2021/06/19 05:34:52;;;;;;;5.33;2.65;;;;;;;21.20;100.00;99864.82;1711537;81;20968;-60
2021/06/19 05:37:19;;;;;;;5.87;2.50;;;;;;;21.29;100.00;99860.73;1669388;83;21004;-60
2021/06/19 05:39:46;;;;;;;3.72;2.95;;;;;;;21.36;100.00;99863.27;1683639;82;21397;-60
2021/06/19 05:42:12;;;;;;;6.00;2.50;;;;;;;21.42;100.00;99860.41;1730046;80;21129;-60
2021/06/19 05:44:39;;;;;;;3.05;2.15;;;;;;;21.52;100.00;99854.07;1717069;81;21119;-60
2021/06/19 05:47:06;;;;;;;4.35;2.50;;;;;;;21.72;100.00;99855.94;1711182;81;21074;-60
2021/06/19 05:49:32;;;;;;;3.17;2.10;;;;;;;21.72;100.00;99865.50;1718253;81;22398;-61
2021/06/19 05:51:59;;;;;;;3.85;2.47;;;;;;;21.94;100.00;99861.23;1712564;81;21500;-60
2021/06/19 05:54:25;;;;;;;7.17;2.47;;;;;;;22.41;100.00;99861.36;1723571;81;21459;-60
2021/06/19 05:56:52;;;;;;;12.10;2.65;;;;;;;22.52;100.00;99862.40;1731952;81;21233;-60
2021/06/19 05:59:18;;;;;;;17.75;2.72;;;;;;;22.67;100.00;99853.66;1727172;82;20953;-60
2021/06/19 06:01:45;;;;;;;6.10;2.33;;;;;;;22.68;100.00;99858.81;1701101;81;21592;-60
2021/06/19 06:04:12;;;;;;;3.83;2.50;;;;;;;23.04;100.00;99860.86;1687235;81;21059;-61
2021/06/19 06:06:39;;;;;;;5.90;2.27;;;;;;;23.22;100.00;99859.61;1686900;80;21065;-60
2021/06/19 06:09:05;;;;;;;5.45;2.20;;;;;;;23.52;100.00;99858.24;1693991;82;21732;-61
2021/06/19 06:11:32;;;;;;;17.05;7.50;;;;;;;23.63;98.43;99867.66;1712971;81;20921;-61
2021/06/19 06:13:58;;;;;;;37.35;16.85;;;;;;;23.58;99.55;99862.95;1723450;81;20941;-60
2021/06/19 06:16:25;;;;;;;73.35;33.30;;;;;;;23.51;100.00;99869.74;1711042;81;21394;-60
2021/06/19 06:18:51;;;;;;;73.45;25.85;;;;;;;23.50;99.10;99862.67;1729169;81;20894;-61
2021/06/19 06:21:18;;;;;;;7.50;3.30;;;;;;;23.60;100.00;99860.69;1717651;81;21176;-61
2021/06/19 06:23:46;;;;;;;5.53;2.08;;;;;;;23.70;99.02;99860.28;1718860;81;20979;-61
2021/06/19 06:26:13;;;;;;;10.13;2.50;;;;;;;24.10;95.68;99864.70;1715011;81;21443;-61
2021/06/19 06:28:41;;;;;;;9.23;3.47;;;;;;;24.22;96.84;99861.22;1721540;81;21088;-60
2021/06/19 06:31:09;;;;;;;22.58;4.55;;;;;;;23.94;95.42;99854.95;1721727;81;20826;-60
2021/06/19 06:33:35;;;;;;;5.83;2.83;;;;;;;23.86;96.45;99865.43;1721512;81;21121;-60
2021/06/19 06:36:02;;;;;;;9.18;4.10;;;;;;;24.28;95.98;99854.97;1713897;81;20976;-61
2021/06/19 06:38:28;;;;;;;13.17;3.13;;;;;;;24.47;95.90;99855.25;1701564;81;21021;-61
2021/06/19 06:40:56;;;;;;;2.67;2.05;;;;;;;24.36;95.27;99857.61;1704049;81;21464;-61
2021/06/19 06:43:26;;;;;;;13.50;2.90;;;;;;;24.47;94.40;99858.57;1675990;83;21091;-60
2021/06/19 06:45:53;;;;;;;7.80;2.62;;;;;;;24.79;95.21;99850.87;1686445;81;21126;-61
2021/06/19 06:48:20;;;;;;;9.98;1.90;;;;;;;24.97;90.80;99854.77;1713069;81;20990;-60
2021/06/19 06:50:47;;;;;;;7.78;2.45;;;;;;;24.73;89.98;99847.30;1684824;81;21717;-61
2021/06/19 06:53:15;;;;;;;7.00;2.60;;;;;;;24.84;91.92;99848.44;1685241;82;21050;-61
2021/06/19 06:55:42;;;;;;;6.05;2.42;;;;;;;24.75;89.43;99849.94;1682321;81;20957;-62
2021/06/19 06:58:08;;;;;;;4.80;2.00;;;;;;;24.82;90.26;99848.00;1706337;82;21879;-62
2021/06/19 07:00:35;;;;;;;9.63;2.02;;;;;;;25.12;90.30;99861.51;1711523;82;21478;-61
2021/06/19 07:03:02;;;;;;;5.25;2.45;;;;;;;25.44;86.26;99855.66;1687024;82;21065;-61
2021/06/19 07:05:29;;;;;;;3.10;1.92;;;;;;;25.41;84.38;99859.11;1710777;82;21067;-59
2021/06/19 07:07:57;;;;;;;29.77;3.35;;;;;;;25.54;83.43;99858.51;1727560;82;21039;-59
2021/06/19 07:10:24;;;;;;;11.10;2.00;;;;;;;25.59;86.79;99856.31;1718806;82;27287;-59
2021/06/19 07:12:51;;;;;;;11.55;2.62;;;;;;;25.91;84.19;99855.67;1694342;82;21365;-60
2021/06/19 07:15:18;;;;;;;12.00;2.02;;;;;;;26.01;83.53;99852.42;1710035;81;21292;-61
2021/06/19 07:17:49;;;;;;;4.80;2.05;;;;;;;25.97;80.97;99855.09;1718935;81;21048;-61
2021/06/19 07:20:17;;;;;;;6.20;2.02;;;;;;;26.05;82.05;99854.13;1731732;80;21135;-60
2021/06/19 07:22:43;;;;;;;9.50;4.78;;;;;;;26.04;80.95;99849.80;1722003;81;21151;-60
2021/06/19 07:25:11;;;;;;;9.83;2.72;;;;;;;26.05;82.51;99858.25;1733541;82;21069;-61
2021/06/19 07:27:38;;;;;;;10.25;2.20;;;;;;;26.08;82.51;99851.25;1703007;83;20989;-61
2021/06/19 07:30:06;;;;;;;90.25;9.85;;;;;;;26.09;81.20;99847.34;1711194;80;21333;-60
2021/06/19 07:32:34;;;;;;;5.92;2.30;;;;;;;26.23;83.47;99851.06;1705851;80;21147;-61
2021/06/19 07:35:00;;;;;;;13.20;2.92;;;;;;;26.32;81.70;99855.05;1717702;82;21537;-60
2021/06/19 07:37:27;;;;;;;13.17;2.73;;;;;;;26.39;82.59;99860.73;1703366;81;21003;-60
2021/06/19 07:39:54;;;;;;;7.22;2.10;;;;;;;26.51;81.80;99853.20;1703621;80;20970;-63
2021/06/19 07:42:21;;;;;;;16.67;2.75;;;;;;;26.00;83.03;99856.34;1716866;81;20978;-62
2021/06/19 07:44:48;;;;;;;8.08;2.47;;;;;;;25.62;84.13;99844.61;1713023;82;21096;-63
2021/06/19 07:47:15;;;;;;;4.47;2.17;;;;;;;25.65;84.41;99849.44;1704533;81;21084;-60
2021/06/19 07:49:42;;;;;;;13.50;2.40;;;;;;;26.05;82.27;99845.88;1687041;81;21041;-63
2021/06/19 07:52:08;;;;;;;6.45;2.17;;;;;;;26.28;81.49;99854.93;1696515;82;22451;-62
2021/06/19 07:54:37;;;;;;;11.18;2.75;;;;;;;26.16;79.82;99848.91;1695635;83;20967;-61
2021/06/19 07:57:05;;;;;;;5.85;2.52;;;;;;;26.10;80.48;99853.08;1688115;81;21091;-61
2021/06/19 07:59:34;;;;;;;13.20;2.98;;;;;;;26.17;80.50;99851.11;1719839;80;21806;-62
2021/06/19 08:02:01;;;;;;;12.80;2.75;;;;;;;26.51;80.73;99851.03;1731713;82;20941;-61
2021/06/19 08:04:28;;;;;;;7.15;2.62;;;;;;;26.71;77.65;99843.11;1720396;82;20913;-59
2021/06/19 08:06:56;;;;;;;6.05;2.08;;;;;;;26.79;77.53;99827.56;1704136;82;20866;-61
2021/06/19 08:09:23;;;;;;;5.77;1.60;;;;;;;26.81;72.52;99843.73;1669826;83;21561;-61
2021/06/19 08:11:50;;;;;;;11.33;2.35;;;;;;;26.88;73.14;99847.47;1705587;81;21110;-61
2021/06/19 08:14:19;;;;;;;5.60;2.65;;;;;;;27.20;73.42;99842.53;1684741;81;21648;-60
2021/06/19 08:16:51;;;;;;;11.55;2.47;;;;;;;27.39;73.46;99848.08;1716649;80;20971;-63
2021/06/19 08:19:16;;;;;;;5.92;2.15;;;;;;;27.36;70.00;99831.69;1706138;82;21380;-60
2021/06/19 08:21:43;;;;;;;6.83;2.40;;;;;;;27.09;71.04;99835.34;1702646;81;21079;-61
2021/06/19 08:24:09;;;;;;;2.57;1.60;;;;;;;26.57;73.72;99837.25;1674097;83;21108;-61
2021/06/19 08:26:37;;;;;;;7.83;2.67;;;;;;;26.37;73.16;99831.39;1673120;83;21056;-62
2021/06/19 08:29:05;;;;;;;12.33;2.17;;;;;;;26.42;73.93;99836.05;1680618;83;21051;-60
2021/06/19 08:31:39;;;;;;;8.38;2.12;;;;;;;26.71;69.02;99832.10;1657388;84;21053;-62
2021/06/19 08:34:07;;;;;;;9.08;2.10;;;;;;;27.02;68.85;99844.81;1701832;81;21121;-63
2021/06/19 08:36:33;;;;;;;12.07;2.33;;;;;;;27.16;65.12;99836.30;1706854;81;21782;-63
2021/06/19 08:39:01;;;;;;;7.35;1.72;;;;;;;27.39;68.20;99826.59;1727669;81;20856;-62
2021/06/19 08:41:28;;;;;;;16.30;2.67;;;;;;;27.65;66.96;99825.39;1710562;81;21348;-61
2021/06/19 08:43:54;;;;;;;10.97;2.50;;;;;;;27.73;62.22;99825.77;1680993;83;20893;-62
2021/06/19 08:46:23;;;;;;;7.42;2.52;;;;;;;27.69;64.15;99829.02;1735880;81;20814;-60
2021/06/19 08:48:53;;;;;;;30.27;3.65;;;;;;;27.78;63.65;99819.14;1725676;82;21696;-62
2021/06/19 08:51:20;;;;;;;10.63;2.25;;;;;;;28.01;63.97;99819.25;1716348;80;21083;-61
2021/06/19 08:53:49;;;;;;;8.08;2.52;;;;;;;27.72;64.90;99817.84;1725910;81;20944;-60
2021/06/19 08:56:19;;;;;;;7.53;2.58;;;;;;;27.43;64.99;99824.13;1720633;81;21466;-60
2021/06/19 08:58:45;;;;;;;15.90;3.37;;;;;;;27.23;67.12;99817.00;1726010;81;21402;-62
2021/06/19 09:01:13;;;;;;;8.38;3.12;;;;;;;26.92;70.22;99829.63;1704299;81;21119;-61
2021/06/19 09:03:39;;;;;;;8.37;2.53;;;;;;;27.09;71.56;99829.84;1738887;82;20869;-62
2021/06/19 09:06:27;;;;;;;8.73;3.52;;;;;;;27.41;69.24;99816.80;1735196;81;21585;-63
2021/06/19 09:09:15;;;;;;;107.70;54.60;;;;;;;27.46;69.95;99798.59;1719212;81;20920;-63
2021/06/19 09:11:45;;;;;;;13.53;6.62;;;;;;;27.71;68.51;99817.64;1709490;81;21012;-62
2021/06/19 09:14:26;;;;;;;26.30;5.08;;;;;;;27.79;67.89;99816.03;1674928;83;21107;-63
2021/06/19 09:16:59;;;;;;;12.13;4.33;;;;;;;27.48;66.99;99821.09;1686058;83;20889;-61
2021/06/19 09:19:37;;;;;;;20.02;6.55;;;;;;;27.39;66.84;99813.63;1683727;82;21570;-62
2021/06/19 09:22:23;;;;;;;14.63;8.48;;;;;;;27.29;68.96;99816.93;1686760;83;21502;-63
2021/06/19 09:24:58;;;;;;;21.20;5.80;;;;;;;27.00;67.73;99814.89;1703201;82;21095;-62
2021/06/19 09:27:42;;;;;;;16.02;5.60;;;;;;;27.16;69.10;99810.13;1727257;81;21184;-62
2021/06/19 09:30:17;;;;;;;8.48;3.60;;;;;;;27.28;68.65;99805.70;1704328;81;20986;-62
2021/06/19 09:32:53;;;;;;;12.25;5.35;;;;;;;27.06;69.90;99809.31;1697777;81;21028;-63
2021/06/19 09:35:29;;;;;;;10.18;2.75;;;;;;;27.05;71.54;99817.37;1692135;81;21544;-62
2021/06/19 09:38:04;;;;;;;15.32;3.95;;;;;;;27.60;69.36;99812.48;1719758;81;21035;-62
2021/06/19 09:40:48;;;;;;;24.47;15.85;;;;;;;27.69;68.70;99797.91;1694706;82;21138;-61
2021/06/19 09:43:28;;;;;;;13.68;4.33;;;;;;;27.74;65.11;99798.41;1687013;82;21053;-61
2021/06/19 09:46:09;;;;;;;6.87;3.67;;;;;;;27.30;65.45;99787.64;1724850;81;20987;-61
2021/06/19 09:48:43;;;;;;;9.43;4.70;;;;;;;26.92;68.86;99800.16;1726792;81;21040;-62
2021/06/19 09:51:24;;;;;;;18.17;6.30;;;;;;;26.72;70.49;99802.61;1716225;81;20975;-62
2021/06/19 09:54:08;;;;;;;6.87;3.52;;;;;;;26.63;71.05;99798.68;1711002;82;21054;-62
2021/06/19 09:56:50;;;;;;;12.50;4.40;;;;;;;26.56;69.24;99801.25;1725596;81;21024;-62
2021/06/19 09:59:33;;;;;;;15.72;6.15;;;;;;;26.79;69.09;99792.36;1730260;81;21054;-63
2021/06/19 10:02:02;;;;;;;9.28;4.45;;;;;;;26.87;69.57;99799.03;1735440;81;20880;-62
2021/06/19 10:04:31;;;;;;;7.87;4.53;;;;;;;26.71;70.44;99797.69;1714385;81;20980;-62
2021/06/19 10:06:58;;;;;;;;;;;;;;;26.97;68.65;99790.80;1720535;81;21449;-62
2021/06/19 10:09:24;;;;;;;17.87;4.80;;;;;;;27.42;67.04;99788.69;1719277;81;20254;-62
2021/06/19 10:11:54;;;;;;;8.68;4.83;;;;;;;27.80;64.89;99785.11;1737220;80;21007;-61
2021/06/19 10:14:24;;;;;;;17.92;9.30;;;;;;;28.33;60.25;99783.95;1725428;81;21110;-61
2021/06/19 10:16:53;;;;;;;11.20;4.92;;;;;;;28.21;60.46;99792.41;1721601;81;22176;-62
2021/06/19 10:19:23;;;;;;;17.00;9.70;;;;;;;28.61;59.84;99782.30;1714158;81;21130;-62
2021/06/19 10:21:52;;;;;;;9.10;5.45;;;;;;;28.65;61.46;99787.86;1718750;81;21515;-62
2021/06/19 10:24:24;;;;;;;9.95;5.22;;;;;;;28.48;61.14;99787.78;1726636;81;21003;-63
2021/06/19 10:26:51;;;;;;;5.97;3.77;;;;;;;28.75;60.16;99787.23;1721385;82;21031;-62
2021/06/19 10:29:18;;;;;;;9.65;4.62;;;;;;;28.82;57.38;99779.05;1716048;80;21184;-62
2021/06/19 10:31:52;;;;;;;7.50;4.13;;;;;;;28.91;57.77;99775.22;1708001;82;22923;-60
2021/06/19 10:34:29;;;;;;;13.48;4.40;;;;;;;29.25;56.35;99774.74;1712444;82;20899;-62
2021/06/19 10:37:07;;;;;;;12.33;4.92;;;;;;;29.40;54.89;99777.11;1714889;81;20995;-63
2021/06/19 10:39:45;;;;;;;13.10;5.33;;;;;;;29.73;55.26;99767.27;1698652;81;21014;-61
2021/06/19 10:42:22;;;;;;;20.27;5.17;;;;;;;29.48;56.10;99773.28;1721873;82;21120;-62
2021/06/19 10:44:57;;;;;;;;;;;;;;;28.91;56.08;99765.55;1718310;81;21461;-63
2021/06/19 10:47:26;;;;;;;37.88;6.72;;;;;;;28.69;56.58;99768.58;1698744;81;20240;-62
2021/06/19 10:49:53;;;;;;;8.98;3.98;;;;;;;28.83;57.41;99757.75;1715942;82;20964;-62
2021/06/19 10:52:38;;;;;;;12.23;4.93;;;;;;;29.20;53.93;99755.16;1712154;81;21049;-61
2021/06/19 10:55:16;;;;;;;69.62;22.25;;;;;;;29.41;53.08;99753.83;1673113;83;21028;-62
2021/06/19 10:58:00;;;;;;;68.72;39.27;;;;;;;29.58;53.41;99757.39;1695204;81;21136;-62
2021/06/19 11:00:34;;;;;;;25.88;11.60;;;;;;;29.64;51.97;99761.44;1725359;81;21008;-61
2021/06/19 11:03:04;;;;;;;14.83;9.15;;;;;;;29.80;49.07;99761.83;1696587;83;21051;-60
2021/06/19 11:05:52;;;;;;;14.68;4.33;;;;;;;29.76;49.90;99753.47;1710424;82;21064;-61
2021/06/19 11:08:18;;;;;;;;;;;;;;;29.52;47.85;99739.56;1728039;81;21525;-62
2021/06/19 11:10:51;;;;;;;9.40;5.20;;;;;;;29.12;49.96;99764.52;1724793;81;20072;-62
2021/06/19 11:13:39;;;;;;;8.90;4.92;;;;;;;28.83;50.18;99749.46;1730812;82;21538;-64
2021/06/19 11:16:29;;;;;;;11.33;4.25;;;;;;;29.01;51.24;99751.12;1721174;81;20977;-61
2021/06/19 11:18:55;;;;;;;16.87;5.08;;;;;;;29.24;49.74;99748.29;1727747;82;20999;-63
2021/06/19 11:21:34;;;;;;;5.35;3.37;;;;;;;29.41;48.54;99758.77;1730092;81;20981;-62
2021/06/19 11:24:06;;;;;;;5.85;3.20;;;;;;;29.50;46.54;99754.34;1740308;81;21101;-62
2021/06/19 11:26:59;;;;;;;9.28;4.00;;;;;;;29.53;46.63;99756.95;1723826;81;20960;-60
2021/06/19 11:29:43;;;;;;;12.82;3.75;;;;;;;29.67;46.46;99757.14;1711223;81;20989;-62
2021/06/19 11:32:28;;;;;;;;;;;;;;;29.80;47.40;99756.30;1745726;80;20991;-61
2021/06/19 11:34:58;;;;;;;9.98;4.03;;;;;;;30.03;46.96;99754.14;1740646;81;20095;-60
2021/06/19 11:37:45;;;;;;;9.83;3.87;;;;;;;30.02;46.88;99758.09;1739494;81;21158;-60